Time,TemperatureF,DewpointF,PressureIn,WindDirection,WindDirectionDegrees,WindSpeedMPH,WindSpeedGustMPH,Humidity,HourlyPrecipIn,Conditions,Clouds,dailyrainin,SoftwareType,DateUTC
2013-02-16 00:12:00,14.9,7.0,30.66,NE,53,0.0,0.0,70,0.00,,,0.00,weatherlink.com 1.10,2013-02-16 07:12:00,
2013-02-16 00:27:00,14.0,7.0,30.66,NE,52,0.0,0.0,74,0.00,,,0.00,weatherlink.com 1.10,2013-02-16 07:27:00,
2013-02-16 00:42:00,14.4,8.0,30.66,NE,53,0.0,0.0,75,0.00,,,0.00,weatherlink.com 1.10,2013-02-16 07:42:00,
2013-02-16 00:57:00,14.7,8.0,30.67,NE,52,0.0,0.0,74,0.00,,,0.00,weatherlink.com 1.10,2013-02-16 07:57:00,
2013-02-16 01:12:00,14.4,7.0,30.66,NE,53,0.0,0.0,73,0.00,,,0.00,weatherlink.com 1.10,2013-02-16 08:12:00,
2013-02-16 01:27:00,13.5,7.0,30.67,NE,53,3.0,4.0,74,0.00,,,0.00,weatherlink.com 1.10,2013-02-16 08:27:00,
2013-02-16 01:42:00,12.4,6.0,30.66,ENE,59,4.0,4.0,75,0.00,,,0.00,weatherlink.com 1.10,2013-02-16 08:42:00,
2013-02-16 01:57:00,12.3,6.0,30.66,ENE,59,2.0,5.0,74,0.00,,,0.00,weatherlink.com 1.10,2013-02-16 08:57:00,
2013-02-16 02:12:00,13.2,7.0,30.66,ENE,59,0.0,3.0,76,0.00,,,0.00,weatherlink.com 1.10,2013-02-16 09:12:00,
2013-02-16 02:27:00,14.3,8.0,30.66,ENE,59,0.0,0.0,77,0.00,,,0.00,weatherlink.com 1.10,2013-02-16 09:27:00,
2013-02-16 02:42:00,14.3,8.0,30.67,ENE,59,0.0,0.0,75,0.00,,,0.00,weatherlink.com 1.10,2013-02-16 09:42:00,
2013-02-16 02:57:00,13.3,7.0,30.67,ENE,59,0.0,0.0,75,0.00,,,0.00,weatherlink.com 1.10,2013-02-16 09:57:00,
2013-02-16 03:12:00,12.6,7.0,30.67,ENE,59,0.0,0.0,77,0.00,,,0.00,weatherlink.com 1.10,2013-02-16 10:12:00,
2013-02-16 03:27:00,12.8,7.0,30.67,ENE,59,0.0,0.0,76,0.00,,,0.00,weatherlink.com 1.10,2013-02-16 10:27:00,
2013-02-16 03:42:00,11.4,6.0,30.67,ENE,59,2.0,4.0,77,0.00,,,0.00,weatherlink.com 1.10,2013-02-16 10:42:00,
2013-02-16 03:57:00,11.6,6.0,30.66,ENE,59,2.0,3.0,77,0.00,,,0.00,weatherlink.com 1.10,2013-02-16 10:57:00,
2013-02-16 04:12:00,11.8,6.0,30.67,ENE,60,2.0,3.0,77,0.00,,,0.00,weatherlink.com 1.10,2013-02-16 11:12:00,
2013-02-16 04:27:00,11.7,5.0,30.66,ENE,60,2.0,3.0,75,0.00,,,0.00,weatherlink.com 1.10,2013-02-16 11:27:00,
2013-02-16 04:42:00,11.2,5.0,30.66,ENE,60,2.0,4.0,77,0.00,,,0.00,weatherlink.com 1.10,2013-02-16 11:42:00,
2013-02-16 04:57:00,11.3,5.0,30.66,ENE,63,3.0,4.0,77,0.00,,,0.00,weatherlink.com 1.10,2013-02-16 11:57:00,
2013-02-16 05:12:00,11.7,6.0,30.66,ENE,63,0.0,3.0,77,0.00,,,0.00,weatherlink.com 1.10,2013-02-16 12:12:00,
2013-02-16 05:27:00,12.0,6.0,30.65,ENE,63,0.0,0.0,76,0.00,,,0.00,weatherlink.com 1.10,2013-02-16 12:27:00,
2013-02-16 05:42:00,11.3,5.0,30.66,ENE,63,0.0,0.0,77,0.00,,,0.00,weatherlink.com 1.10,2013-02-16 12:42:00,
2013-02-16 05:57:00,11.0,5.0,30.66,ENE,63,0.0,0.0,78,0.00,,,0.00,weatherlink.com 1.10,2013-02-16 12:57:00,
2013-02-16 06:12:00,10.4,5.0,30.66,ENE,63,0.0,0.0,78,0.00,,,0.00,weatherlink.com 1.10,2013-02-16 13:12:00,
2013-02-16 06:27:00,9.7,4.0,30.66,NNE,28,2.0,4.0,78,0.00,,,0.00,weatherlink.com 1.10,2013-02-16 13:27:00,
2013-02-16 06:42:00,9.2,4.0,30.66,NNE,28,2.0,5.0,79,0.00,,,0.00,weatherlink.com 1.10,2013-02-16 13:42:00,
2013-02-16 06:57:00,9.3,4.0,30.66,NE,44,3.0,4.0,79,0.00,,,0.00,weatherlink.com 1.10,2013-02-16 13:57:00,
2013-02-16 07:12:00,10.4,5.0,30.67,NE,44,0.0,4.0,79,0.00,,,0.00,weatherlink.com 1.10,2013-02-16 14:12:00,
2013-02-16 07:28:00,11.6,6.0,30.67,NE,44,0.0,0.0,77,0.00,,,0.00,weatherlink.com 1.10,2013-02-16 14:28:00,
2013-02-16 07:43:00,12.7,7.0,30.67,NE,44,0.0,0.0,76,0.00,,,0.00,weatherlink.com 1.10,2013-02-16 14:43:00,
2013-02-16 07:58:00,15.0,7.0,30.68,NE,44,0.0,0.0,71,0.00,,,0.00,weatherlink.com 1.10,2013-02-16 14:58:00,
2013-02-16 08:13:00,16.8,8.0,30.68,NE,44,0.0,0.0,68,0.00,,,0.00,weatherlink.com 1.10,2013-02-16 15:13:00,
2013-02-16 08:28:00,18.7,9.0,30.68,NE,44,0.0,0.0,66,0.00,,,0.00,weatherlink.com 1.10,2013-02-16 15:28:00,
2013-02-16 08:43:00,20.8,10.0,30.68,NE,44,0.0,0.0,62,0.00,,,0.00,weatherlink.com 1.10,2013-02-16 15:43:00,
2013-02-16 08:58:00,20.8,9.0,30.67,NE,44,0.0,0.0,60,0.00,,,0.00,weatherlink.com 1.10,2013-02-16 15:58:00,
2013-02-16 09:13:00,20.6,9.0,30.67,NE,44,0.0,0.0,60,0.00,,,0.00,weatherlink.com 1.10,2013-02-16 16:13:00,
2013-02-16 09:28:00,21.4,9.0,30.66,NE,44,0.0,0.0,59,0.00,,,0.00,weatherlink.com 1.10,2013-02-16 16:28:00,
2013-02-16 09:43:00,20.7,9.0,30.66,WNW,297,0.0,5.0,61,0.00,,,0.00,weatherlink.com 1.10,2013-02-16 16:43:00,
2013-02-16 09:58:00,22.8,10.0,30.66,WNW,298,3.0,4.0,58,0.00,,,0.00,weatherlink.com 1.10,2013-02-16 16:58:00,
2013-02-16 10:13:00,23.5,10.0,30.66,North,359,0.0,4.0,57,0.00,,,0.00,weatherlink.com 1.10,2013-02-16 17:13:00,
2013-02-16 10:28:00,25.4,11.0,30.65,North,359,0.0,0.0,54,0.00,,,0.00,weatherlink.com 1.10,2013-02-16 17:28:00,
2013-02-16 10:43:00,25.7,11.0,30.65,NW,323,0.0,5.0,54,0.00,,,0.00,weatherlink.com 1.10,2013-02-16 17:43:00,
2013-02-16 10:58:00,25.3,11.0,30.65,West,272,0.0,5.0,55,0.00,,,0.00,weatherlink.com 1.10,2013-02-16 17:58:00,
2013-02-16 11:13:00,27.6,12.0,30.65,WNW,288,2.0,4.0,53,0.00,,,0.00,weatherlink.com 1.10,2013-02-16 18:13:00,
2013-02-16 11:28:00,29.4,13.0,30.64,WNW,288,0.0,4.0,51,0.00,,,0.00,weatherlink.com 1.10,2013-02-16 18:28:00,
2013-02-16 11:43:00,32.1,15.0,30.63,WNW,288,0.0,0.0,49,0.00,,,0.00,weatherlink.com 1.10,2013-02-16 18:43:00,
2013-02-16 11:58:00,33.4,14.0,30.62,WNW,288,0.0,1.0,45,0.00,,,0.00,weatherlink.com 1.10,2013-02-16 18:58:00,
2013-02-16 12:13:00,35.0,14.0,30.60,WNW,288,0.0,2.0,42,0.00,,,0.00,weatherlink.com 1.10,2013-02-16 19:13:00,
2013-02-16 12:28:00,31.8,13.0,30.59,WSW,248,3.0,8.0,45,0.00,,,0.00,weatherlink.com 1.10,2013-02-16 19:28:00,
2013-02-16 12:43:00,31.5,14.0,30.58,WSW,242,0.0,5.0,48,0.00,,,0.00,weatherlink.com 1.10,2013-02-16 19:43:00,
2013-02-16 12:58:00,32.3,14.0,30.56,WSW,242,0.0,5.0,48,0.00,,,0.00,weatherlink.com 1.10,2013-02-16 19:58:00,
2013-02-16 13:13:00,33.4,15.0,30.55,WSW,247,4.0,9.0,46,0.00,,,0.00,weatherlink.com 1.10,2013-02-16 20:13:00,
2013-02-16 13:29:00,33.7,15.0,30.54,SW,229,0.0,9.0,46,0.00,,,0.00,weatherlink.com 1.10,2013-02-16 20:29:00,
2013-02-16 13:44:00,34.5,15.0,30.53,WNW,284,2.0,9.0,45,0.00,,,0.00,weatherlink.com 1.10,2013-02-16 20:44:00,
2013-02-16 13:59:00,35.5,16.0,30.52,West,269,7.0,8.0,45,0.00,,,0.00,weatherlink.com 1.10,2013-02-16 20:59:00,
2013-02-16 14:14:00,35.6,16.0,30.52,WSW,250,8.0,10.0,44,0.00,,,0.00,weatherlink.com 1.10,2013-02-16 21:14:00,
2013-02-16 14:29:00,35.9,16.0,30.51,West,272,4.0,9.0,45,0.00,,,0.00,weatherlink.com 1.10,2013-02-16 21:29:00,
2013-02-16 14:44:00,36.4,16.0,30.49,West,264,6.0,8.0,44,0.00,,,0.00,weatherlink.com 1.10,2013-02-16 21:44:00,
2013-02-16 14:59:00,36.6,16.0,30.49,WSW,257,2.0,7.0,43,0.00,,,0.00,weatherlink.com 1.10,2013-02-16 21:59:00,
2013-02-16 15:14:00,37.0,16.0,30.48,West,273,2.0,6.0,43,0.00,,,0.00,weatherlink.com 1.10,2013-02-16 22:14:00,
2013-02-16 15:29:00,37.5,16.0,30.47,West,280,2.0,7.0,42,0.00,,,0.00,weatherlink.com 1.10,2013-02-16 22:29:00,
2013-02-16 15:44:00,37.4,17.0,30.47,West,271,0.0,8.0,43,0.00,,,0.00,weatherlink.com 1.10,2013-02-16 22:44:00,
2013-02-16 15:59:00,37.0,16.0,30.46,WNW,291,3.0,9.0,43,0.00,,,0.00,weatherlink.com 1.10,2013-02-16 22:59:00,
2013-02-16 16:14:00,36.6,16.0,30.45,WNW,298,6.0,11.0,44,0.00,,,0.00,weatherlink.com 1.10,2013-02-16 23:14:00,
2013-02-16 16:29:00,36.2,16.0,30.45,WNW,300,1.0,10.0,44,0.00,,,0.00,weatherlink.com 1.10,2013-02-16 23:29:00,
2013-02-16 16:44:00,36.0,16.0,30.44,WNW,295,2.0,10.0,44,0.00,,,0.00,weatherlink.com 1.10,2013-02-16 23:44:00,
2013-02-16 16:59:00,35.8,16.0,30.44,West,274,5.0,10.0,44,0.00,,,0.00,weatherlink.com 1.10,2013-02-16 23:59:00,
2013-02-16 17:14:00,35.1,15.0,30.43,West,277,1.0,9.0,44,0.00,,,0.00,weatherlink.com 1.10,2013-02-17 00:14:00,
2013-02-16 17:29:00,34.3,15.0,30.43,West,278,0.0,3.0,45,0.00,,,0.00,weatherlink.com 1.10,2013-02-17 00:29:00,
2013-02-16 17:44:00,32.6,14.0,30.43,WNW,287,0.0,3.0,46,0.00,,,0.00,weatherlink.com 1.10,2013-02-17 00:44:00,
2013-02-16 17:59:00,31.2,13.0,30.43,WNW,288,0.0,7.0,48,0.00,,,0.00,weatherlink.com 1.10,2013-02-17 00:59:00,
2013-02-16 18:14:00,29.8,13.0,30.42,WNW,288,0.0,1.0,50,0.00,,,0.00,weatherlink.com 1.10,2013-02-17 01:14:00,
2013-02-16 18:29:00,29.3,13.0,30.42,WNW,288,0.0,0.0,50,0.00,,,0.00,weatherlink.com 1.10,2013-02-17 01:29:00,
2013-02-16 18:44:00,28.6,12.0,30.42,WNW,288,0.0,0.0,51,0.00,,,0.00,weatherlink.com 1.10,2013-02-17 01:44:00,
2013-02-16 18:59:00,28.4,12.0,30.43,WNW,288,0.0,0.0,50,0.00,,,0.00,weatherlink.com 1.10,2013-02-17 01:59:00,
2013-02-16 19:14:00,28.8,12.0,30.43,SSW,197,0.0,0.0,50,0.00,,,0.00,weatherlink.com 1.10,2013-02-17 02:14:00,
2013-02-16 19:29:00,28.8,12.0,30.42,SSE,148,0.0,0.0,50,0.00,,,0.00,weatherlink.com 1.10,2013-02-17 02:29:00,
2013-02-16 19:44:00,28.6,12.0,30.42,SSE,148,0.0,0.0,51,0.00,,,0.00,weatherlink.com 1.10,2013-02-17 02:44:00,
2013-02-16 19:59:00,28.5,12.0,30.42,SSE,148,0.0,0.0,50,0.00,,,0.00,weatherlink.com 1.10,2013-02-17 02:59:00,
2013-02-16 20:14:00,25.8,12.0,30.42,East,98,2.0,3.0,55,0.00,,,0.00,weatherlink.com 1.10,2013-02-17 03:14:00,
2013-02-16 20:29:00,23.3,11.0,30.41,East,89,2.0,3.0,59,0.00,,,0.00,weatherlink.com 1.10,2013-02-17 03:29:00,
2013-02-16 20:44:00,22.8,11.0,30.41,East,83,2.0,3.0,60,0.00,,,0.00,weatherlink.com 1.10,2013-02-17 03:44:00,
2013-02-16 20:59:00,22.8,11.0,30.41,East,82,2.0,2.0,61,0.00,,,0.00,weatherlink.com 1.10,2013-02-17 03:59:00,
2013-02-16 21:14:00,22.3,11.0,30.41,East,82,2.0,3.0,61,0.00,,,0.00,weatherlink.com 1.10,2013-02-17 04:14:00,
2013-02-16 21:29:00,21.1,10.0,30.41,East,80,2.0,3.0,63,0.00,,,0.00,weatherlink.com 1.10,2013-02-17 04:29:00,
2013-02-16 21:44:00,20.8,10.0,30.40,ENE,74,1.0,4.0,62,0.00,,,0.00,weatherlink.com 1.10,2013-02-17 04:44:00,
2013-02-16 21:59:00,20.0,10.0,30.40,ENE,73,1.0,3.0,64,0.00,,,0.00,weatherlink.com 1.10,2013-02-17 04:59:00,
2013-02-16 22:14:00,20.7,10.0,30.39,ENE,75,2.0,3.0,63,0.00,,,0.00,weatherlink.com 1.10,2013-02-17 05:14:00,
2013-02-16 22:30:00,21.7,10.0,30.39,ENE,75,0.0,0.0,61,0.00,,,0.00,weatherlink.com 1.10,2013-02-17 05:30:00,
2013-02-16 22:45:00,20.7,9.0,30.38,East,87,3.0,5.0,62,0.00,,,0.00,weatherlink.com 1.10,2013-02-17 05:45:00,
2013-02-16 23:00:00,21.4,10.0,30.37,ENE,76,3.0,3.0,62,0.00,,,0.00,weatherlink.com 1.10,2013-02-17 06:00:00,
2013-02-16 23:15:00,21.1,9.0,30.37,ENE,76,0.0,0.0,61,0.00,,,0.00,weatherlink.com 1.10,2013-02-17 06:15:00,
2013-02-16 23:30:00,21.0,10.0,30.36,ENE,76,0.0,0.0,63,0.00,,,0.00,weatherlink.com 1.10,2013-02-17 06:30:00,
2013-02-16 23:45:00,20.4,9.0,30.35,ENE,71,2.0,3.0,61,0.00,,,0.00,weatherlink.com 1.10,2013-02-17 06:45:00,